Terminal Aerodrome Forecast
Issued by NWS Shreveport, LA

Home | Current Version | Previous Version | Text Only | Print | Product List | Glossary On
Versions: 1 2 3 4 5 6 7 8 9 10 11 12 13 14 15 16 17
000
FTUS44 KSHV 241900 AAA
TAFMLU
TAF AMD
KMLU 241903Z 2419/2518 01006KT P6SM BKN025
     FM242300 02005KT P6SM SKC
     FM250200 06004KT P6SM SKC
     FM250600 05002KT 3SM BR SKC
     FM251500 09002KT P6SM SKC=

USA.gov is the U.S. government's official web portal to all federal, state and local government web resources and services.